createdAt,value
2022-09-04T00:01:19.613Z,2.10
2022-09-04T00:04:19.422Z,2.10
2022-09-04T00:07:15.601Z,2.27
2022-09-04T00:10:12.601Z,2.00
2022-09-04T00:13:07.396Z,2.23
2022-09-04T00:16:01.995Z,1.93
2022-09-04T00:18:56.511Z,2.23
2022-09-04T00:21:49.776Z,2.07
2022-09-04T00:24:41.311Z,2.23
2022-09-04T00:27:32.738Z,2.00
2022-09-04T00:30:24.573Z,2.70
2022-09-04T00:33:17.611Z,2.00
2022-09-04T00:36:07.723Z,2.50
2022-09-04T00:38:57.918Z,2.07
2022-09-04T00:41:59.530Z,2.00
2022-09-04T00:44:58.342Z,2.27
2022-09-04T00:48:14.251Z,1.80
2022-09-04T00:51:20.705Z,1.70
2022-09-04T00:54:45.981Z,2.03
2022-09-04T00:58:00.118Z,2.10
2022-09-04T01:00:48.930Z,1.97
2022-09-04T01:03:55.283Z,1.77
2022-09-04T01:07:02.610Z,1.90
2022-09-04T01:10:06.478Z,1.80
2022-09-04T01:13:02.431Z,2.10
2022-09-04T01:15:57.546Z,1.90
2022-09-04T01:18:56.474Z,2.50
2022-09-04T01:22:10.808Z,1.90
2022-09-04T01:25:28.052Z,2.10
2022-09-04T01:28:25.374Z,1.80
2022-09-04T01:31:23.968Z,2.00
2022-09-04T01:34:30.122Z,2.10
2022-09-04T01:37:34.969Z,1.97
2022-09-04T01:40:38.002Z,1.87
2022-09-04T01:43:26.532Z,1.90
2022-09-04T01:46:37.137Z,1.97
2022-09-04T01:49:33.152Z,2.43
2022-09-04T01:52:37.092Z,2.20
2022-09-04T01:55:31.805Z,2.40
2022-09-04T01:58:25.650Z,2.17
2022-09-04T02:01:21.679Z,1.90
2022-09-04T02:04:16.243Z,1.70
2022-09-04T02:07:17.001Z,1.80
2022-09-04T02:10:13.744Z,2.47
2022-09-04T02:13:13.599Z,2.20
2022-09-04T02:16:14.995Z,1.57
2022-09-04T02:19:13.482Z,1.60
2022-09-04T02:22:07.868Z,1.87
2022-09-04T02:25:04.727Z,1.73
2022-09-04T02:27:58.922Z,1.90
2022-09-04T02:30:54.212Z,1.53
2022-09-04T02:33:48.538Z,1.80
2022-09-04T02:36:43.894Z,1.80
2022-09-04T02:39:41.661Z,1.80
2022-09-04T02:42:35.798Z,1.93
2022-09-04T02:45:33.591Z,1.93
2022-09-04T02:48:28.105Z,1.90
2022-09-04T02:51:25.638Z,1.60
2022-09-04T02:54:22.542Z,1.70
2022-09-04T02:57:20.045Z,2.37
2022-09-04T03:00:13.387Z,2.10
2022-09-04T03:03:06.721Z,1.97
2022-09-04T03:06:02.544Z,2.17
2022-09-04T03:08:57.176Z,2.30
2022-09-04T03:11:53.579Z,2.20
2022-09-04T03:14:48.112Z,2.23
2022-09-04T03:17:47.209Z,2.27
2022-09-04T03:20:40.959Z,2.63
2022-09-04T03:23:36.817Z,2.57
2022-09-04T03:26:25.947Z,2.70
2022-09-04T03:29:24.753Z,2.40
2022-09-04T03:32:20.342Z,2.73
2022-09-04T03:35:11.743Z,3.13
2022-09-04T03:38:09.897Z,3.63
2022-09-04T03:41:07.822Z,3.20
2022-09-04T03:44:12.104Z,3.00
2022-09-04T03:47:12.254Z,2.87
2022-09-04T03:50:08.353Z,2.40
2022-09-04T03:53:05.861Z,2.60
2022-09-04T03:56:17.382Z,2.40
2022-09-04T03:59:08.208Z,2.57
2022-09-04T04:02:01.335Z,2.23
2022-09-04T04:05:26.675Z,2.50
2022-09-04T04:08:38.295Z,2.33
2022-09-04T04:11:53.423Z,2.30
2022-09-04T04:15:14.095Z,2.47
2022-09-04T04:18:25.848Z,1.97
2022-09-04T04:21:29.247Z,2.13
2022-09-04T04:24:40.179Z,1.90
2022-09-04T04:27:42.928Z,2.00
2022-09-04T04:30:37.937Z,1.77
2022-09-04T04:33:51.608Z,1.90
2022-09-04T04:36:47.983Z,1.83
2022-09-04T04:39:41.310Z,1.90
2022-09-04T04:42:37.490Z,2.40
2022-09-04T04:45:49.053Z,1.83
2022-09-04T04:49:15.489Z,2.57
2022-09-04T04:52:30.187Z,2.17
2022-09-04T04:55:24.100Z,3.40
2022-09-04T04:58:37.876Z,2.53
2022-09-04T05:01:35.489Z,3.20
2022-09-04T05:04:43.165Z,2.80
2022-09-04T05:07:38.077Z,2.47
2022-09-04T05:10:32.308Z,2.40
2022-09-04T05:13:34.206Z,2.10
2022-09-04T05:16:28.214Z,2.00
2022-09-04T05:19:23.192Z,2.03
2022-09-04T05:22:16.879Z,2.43
2022-09-04T05:25:14.112Z,2.30
2022-09-04T05:28:33.654Z,2.10
2022-09-04T05:31:39.974Z,2.47
2022-09-04T05:34:36.472Z,2.40
2022-09-04T05:37:32.282Z,2.33
2022-09-04T05:40:29.641Z,2.17
2022-09-04T05:43:27.075Z,2.30
2022-09-04T05:46:26.465Z,1.90
2022-09-04T05:49:25.621Z,1.97
2022-09-04T05:52:33.456Z,2.53
2022-09-04T05:55:46.586Z,2.27
2022-09-04T05:58:53.432Z,2.83
2022-09-04T06:02:01.876Z,2.70
2022-09-04T06:05:23.658Z,3.00
2022-09-04T06:08:26.441Z,3.23
2022-09-04T06:11:49.997Z,3.57
2022-09-04T06:15:15.997Z,2.60
2022-09-04T06:18:16.743Z,3.00
2022-09-04T06:21:41.479Z,2.77
2022-09-04T06:25:01.275Z,2.80
2022-09-04T06:28:17.794Z,2.87
2022-09-04T06:31:13.668Z,2.60
2022-09-04T06:34:07.199Z,2.87
2022-09-04T06:37:08.294Z,2.90
2022-09-04T06:40:22.747Z,3.20
2022-09-04T06:43:22.658Z,6.90
2022-09-04T06:46:23.945Z,3.30
2022-09-04T06:49:19.178Z,3.63
2022-09-04T06:52:21.348Z,3.10
2022-09-04T06:55:15.618Z,2.17
2022-09-04T06:58:25.068Z,2.20
2022-09-04T07:01:17.393Z,2.13
2022-09-04T07:04:14.574Z,2.38
2022-09-04T07:07:12.144Z,2.38
2022-09-04T07:10:02.005Z,1.90
2022-09-04T07:13:23.655Z,1.70
2022-09-04T07:16:36.328Z,1.73
2022-09-04T07:20:03.465Z,2.10
2022-09-04T07:23:28.868Z,1.63
2022-09-04T07:26:28.646Z,1.95
2022-09-04T07:29:32.792Z,1.90
2022-09-04T07:32:23.931Z,1.45
2022-09-04T07:35:17.422Z,1.77
2022-09-04T07:38:16.089Z,1.90
2022-09-04T07:41:10.704Z,1.77
2022-09-04T07:44:05.962Z,1.70
2022-09-04T07:47:02.201Z,1.88
2022-09-04T07:49:59.203Z,2.00
2022-09-04T07:53:05.508Z,1.90
2022-09-04T07:56:01.921Z,1.95
2022-09-04T07:59:14.362Z,2.10
2022-09-04T08:02:26.092Z,1.80
2022-09-04T08:05:24.953Z,2.03
2022-09-04T08:08:44.691Z,1.80
2022-09-04T08:11:58.983Z,1.92
2022-09-04T08:14:55.925Z,2.03
2022-09-04T08:18:15.492Z,1.65
2022-09-04T08:21:15.271Z,1.77
2022-09-04T08:24:41.281Z,1.13
2022-09-04T08:27:55.489Z,1.33
2022-09-04T08:30:50.877Z,1.20
2022-09-04T08:34:08.961Z,1.25
2022-09-04T08:37:07.634Z,1.17
2022-09-04T08:40:17.446Z,1.05
2022-09-04T08:43:33.108Z,1.33
2022-09-04T08:46:55.369Z,1.30
2022-09-04T08:50:07.374Z,1.23
2022-09-04T08:53:45.365Z,1.20
2022-09-04T08:56:39.234Z,0.90
2022-09-04T08:59:58.506Z,1.05
2022-09-04T09:03:21.848Z,1.30
2022-09-04T09:06:57.808Z,1.20
2022-09-04T09:10:20.924Z,0.90
2022-09-04T09:13:53.156Z,1.15
2022-09-04T09:16:45.544Z,1.00
2022-09-04T09:19:45.482Z,1.17
2022-09-04T09:22:51.028Z,1.10
2022-09-04T09:25:50.781Z,1.08
2022-09-04T09:29:21.593Z,1.20
2022-09-04T09:33:03.881Z,1.08
2022-09-04T09:36:22.520Z,1.30
2022-09-04T09:39:34.398Z,1.45
2022-09-04T09:42:57.617Z,1.10
2022-09-04T09:46:08.966Z,1.17
2022-09-04T09:49:48.507Z,1.30
2022-09-04T09:53:22.014Z,1.10
2022-09-04T09:56:26.294Z,0.90
2022-09-04T09:59:51.744Z,1.00
2022-09-04T10:03:30.597Z,1.38
2022-09-04T10:07:01.656Z,0.95
2022-09-04T10:10:36.678Z,1.48
2022-09-04T10:14:08.677Z,1.20
2022-09-04T10:17:27.874Z,1.20
2022-09-04T10:20:56.237Z,1.30
2022-09-04T10:24:13.687Z,1.20
2022-09-04T10:27:28.573Z,1.35
2022-09-04T10:30:18.944Z,1.38
2022-09-04T10:33:28.530Z,1.30
2022-09-04T10:36:30.159Z,1.35
2022-09-04T10:39:44.802Z,1.20
2022-09-04T10:42:46.697Z,1.02
2022-09-04T10:45:37.918Z,1.17
2022-09-04T10:49:07.511Z,1.35
2022-09-04T10:52:31.679Z,1.20
2022-09-04T10:55:31.474Z,1.30
2022-09-04T10:58:39.953Z,1.23
2022-09-04T11:02:08.526Z,1.02
2022-09-04T11:05:18.919Z,1.23
2022-09-04T11:08:36.632Z,1.02
2022-09-04T11:11:51.906Z,1.20
2022-09-04T11:15:01.469Z,1.17
2022-09-04T11:18:24.193Z,1.42
2022-09-04T11:21:56.127Z,1.15
2022-09-04T11:25:27.318Z,1.13
2022-09-04T11:28:51.407Z,1.30
2022-09-04T11:32:00.511Z,1.20
2022-09-04T11:35:23.967Z,1.10
2022-09-04T11:38:18.850Z,1.30
2022-09-04T11:41:57.410Z,1.92
2022-09-04T11:45:16.833Z,1.20
2022-09-04T11:48:34.594Z,1.20
2022-09-04T11:52:18.767Z,1.15
2022-09-04T11:55:29.051Z,1.48
2022-09-04T11:58:41.957Z,1.52
2022-09-04T12:05:43.318Z,1.35
2022-09-04T12:08:57.601Z,1.55
2022-09-04T12:12:08.237Z,1.60
2022-09-04T12:15:33.376Z,2.00
2022-09-04T12:19:11.498Z,1.38
2022-09-04T12:22:36.468Z,1.40
2022-09-04T12:25:58.059Z,1.55
2022-09-04T12:29:21.701Z,1.40
2022-09-04T12:32:35.323Z,1.40
2022-09-04T12:35:54.597Z,1.45
2022-09-04T12:39:03.568Z,1.50
2022-09-04T12:41:59.149Z,1.40
2022-09-04T12:44:59.846Z,1.35
2022-09-04T12:47:58.809Z,1.40
2022-09-04T12:50:53.167Z,1.60
2022-09-04T12:54:21.388Z,1.50
2022-09-04T12:57:26.667Z,1.60
2022-09-04T13:00:16.871Z,1.30
2022-09-04T13:03:18.303Z,1.27
2022-09-04T13:06:17.859Z,1.55
2022-09-04T13:09:17.406Z,1.77
2022-09-04T13:12:15.754Z,1.40
2022-09-04T13:15:23.021Z,1.60
2022-09-04T13:18:21.622Z,1.25
2022-09-04T13:21:20.372Z,1.73
2022-09-04T13:24:20.656Z,1.40
2022-09-04T13:27:26.603Z,1.40
2022-09-04T13:30:21.798Z,1.77
2022-09-04T13:33:39.737Z,1.55
2022-09-04T13:36:38.198Z,1.50
2022-09-04T13:39:44.281Z,1.58
2022-09-04T13:42:57.468Z,1.70
2022-09-04T13:45:47.173Z,1.60
2022-09-04T13:48:43.962Z,1.52
2022-09-04T13:51:35.653Z,1.50
2022-09-04T13:54:30.281Z,1.80
2022-09-04T13:57:21.095Z,1.65
2022-09-04T14:00:11.969Z,1.80
2022-09-04T14:03:10.893Z,1.30
2022-09-04T14:06:00.405Z,1.42
2022-09-04T14:09:00.185Z,1.55
2022-09-04T14:12:11.642Z,1.60
2022-09-04T14:15:31.391Z,1.77
2022-09-04T14:18:30.941Z,1.58
2022-09-04T14:21:31.968Z,1.50
2022-09-04T14:24:32.913Z,1.40
2022-09-04T14:27:28.391Z,1.40
2022-09-04T14:30:17.165Z,1.40
2022-09-04T14:33:19.172Z,1.60
2022-09-04T14:36:22.167Z,1.52
2022-09-04T14:39:21.359Z,1.35
2022-09-04T14:42:25.698Z,1.45
2022-09-04T14:45:39.426Z,1.58
2022-09-04T14:48:27.859Z,1.38
2022-09-04T14:51:35.179Z,1.70
2022-09-04T14:54:29.253Z,1.42
2022-09-04T14:57:22.716Z,1.40
2022-09-04T15:00:14.918Z,1.38
2022-09-04T15:03:11.087Z,1.80
2022-09-04T15:06:01.822Z,1.58
2022-09-04T15:08:50.710Z,1.50
2022-09-04T15:11:39.123Z,1.60
2022-09-04T15:14:33.202Z,1.63
2022-09-04T15:17:28.522Z,1.52
2022-09-04T15:20:22.267Z,1.52
2022-09-04T15:23:19.612Z,1.40
2022-09-04T15:26:12.061Z,1.83
2022-09-04T15:29:06.985Z,1.50
2022-09-04T15:32:00.961Z,1.50
2022-09-04T15:34:48.302Z,1.55
2022-09-04T15:37:36.890Z,1.50
2022-09-04T15:40:29.634Z,1.52
2022-09-04T15:43:25.245Z,1.48
2022-09-04T15:46:23.264Z,1.55
2022-09-04T15:49:22.548Z,1.35
2022-09-04T15:52:24.287Z,1.40
2022-09-04T15:55:19.410Z,1.42
2022-09-04T15:58:15.081Z,1.55
2022-09-04T16:01:17.187Z,1.50
2022-09-04T16:04:12.663Z,1.45
2022-09-04T16:07:23.518Z,1.73
2022-09-04T16:10:16.882Z,1.80
2022-09-04T16:13:07.168Z,2.13
2022-09-04T16:16:03.511Z,1.80
2022-09-04T16:19:01.199Z,2.22
2022-09-04T16:21:55.330Z,2.25
2022-09-04T16:24:44.842Z,1.90
2022-09-04T16:27:32.352Z,2.05
2022-09-04T16:30:31.641Z,2.00
2022-09-04T16:33:28.154Z,1.85
2022-09-04T16:36:24.860Z,1.88
2022-09-04T16:39:22.484Z,2.00
2022-09-04T16:42:19.137Z,1.55
2022-09-04T16:45:13.645Z,1.70
2022-09-04T16:48:25.100Z,1.70
2022-09-04T16:51:40.290Z,1.52
2022-09-04T16:54:35.582Z,1.90
2022-09-04T16:57:32.121Z,1.30
2022-09-04T17:00:22.357Z,1.40
2022-09-04T17:03:21.467Z,1.63
2022-09-04T17:06:21.667Z,1.63
2022-09-04T17:09:21.373Z,1.33
2022-09-04T17:12:23.793Z,1.80
2022-09-04T17:15:21.256Z,1.40
2022-09-04T17:18:09.633Z,1.65
2022-09-04T17:25:05.725Z,1.90
2022-09-04T17:29:08.975Z,2.00
2022-09-04T17:29:14.610Z,1.60
2022-09-04T17:30:56.338Z,1.73
2022-09-04T17:40:32.568Z,1.50
2022-09-04T17:40:51.300Z,1.73
2022-09-04T17:40:51.891Z,2.20
2022-09-04T17:43:28.772Z,2.00
2022-09-04T17:46:27.596Z,1.67
2022-09-04T17:49:20.110Z,1.92
2022-09-04T17:52:09.157Z,1.90
2022-09-04T17:55:02.900Z,1.85
2022-09-04T17:57:58.481Z,1.98
2022-09-04T18:01:14.512Z,2.15
2022-09-04T18:04:22.392Z,1.58
2022-09-04T18:07:33.545Z,1.90
2022-09-04T18:10:34.660Z,2.03
2022-09-04T18:13:38.178Z,2.10
2022-09-04T18:17:11.556Z,2.10
2022-09-04T18:20:10.408Z,2.58
2022-09-04T18:23:26.011Z,2.22
2022-09-04T18:26:20.239Z,3.72
2022-09-04T18:31:02.460Z,4.35
2022-09-04T18:37:16.258Z,3.08
2022-09-04T18:37:16.734Z,2.80
2022-09-04T18:39:10.075Z,2.95
2022-09-04T18:50:22.179Z,2.20
2022-09-04T18:50:23.557Z,3.28
2022-09-04T18:50:45.371Z,1.90
2022-09-04T18:51:51.186Z,2.42
2022-09-04T18:54:44.972Z,2.10
2022-09-04T18:57:34.865Z,2.05
2022-09-04T19:00:30.216Z,2.70
2022-09-04T19:03:22.181Z,2.50
2022-09-04T19:06:14.071Z,3.40
2022-09-04T19:09:10.246Z,3.00
2022-09-04T19:12:02.595Z,2.30
2022-09-04T19:14:54.384Z,2.15
2022-09-04T19:17:46.966Z,2.33
2022-09-04T19:20:44.395Z,2.30
2022-09-04T19:23:36.227Z,2.47
2022-09-04T19:26:30.661Z,2.47
2022-09-04T19:29:21.683Z,2.80
2022-09-04T19:32:14.932Z,2.50
2022-09-04T19:35:13.332Z,2.33
2022-09-04T19:43:02.245Z,2.60
2022-09-04T19:46:14.127Z,2.60
2022-09-04T19:46:19.137Z,2.60
2022-09-04T19:47:53.037Z,4.00
2022-09-04T19:53:22.273Z,5.00
2022-09-04T19:53:58.572Z,5.03
2022-09-04T19:57:17.802Z,4.70
2022-09-04T20:00:16.535Z,3.13
2022-09-04T20:03:30.474Z,3.40
2022-09-04T20:06:28.703Z,3.10
2022-09-04T20:09:21.986Z,2.70
2022-09-04T20:12:21.031Z,3.00
2022-09-04T20:15:14.552Z,2.43
2022-09-04T20:18:11.577Z,2.83
2022-09-04T20:21:07.268Z,2.60
2022-09-04T20:24:02.423Z,3.17
2022-09-04T20:26:56.515Z,3.00
2022-09-04T20:29:54.557Z,2.63
2022-09-04T20:32:56.247Z,2.50
2022-09-04T20:35:49.548Z,2.23
2022-09-04T20:38:46.407Z,2.53
2022-09-04T20:41:44.873Z,2.63
2022-09-04T20:44:47.608Z,2.70
2022-09-04T20:52:41.547Z,2.33
2022-09-04T20:52:54.739Z,2.60
2022-09-04T20:54:49.079Z,2.50
2022-09-04T21:03:08.924Z,2.60
2022-09-04T21:03:20.215Z,2.50
2022-09-04T21:04:43.138Z,2.63
2022-09-04T21:07:34.887Z,3.00
2022-09-04T21:10:29.584Z,2.47
2022-09-04T21:13:24.148Z,2.63
2022-09-04T21:16:24.800Z,2.67
2022-09-04T21:19:36.234Z,2.43
2022-09-04T21:22:43.208Z,2.70
2022-09-04T21:25:44.832Z,2.90
2022-09-04T21:29:11.335Z,2.50
2022-09-04T21:32:31.083Z,2.40
2022-09-04T21:35:23.493Z,2.47
2022-09-04T21:38:34.251Z,2.90
2022-09-04T21:41:36.757Z,2.93
2022-09-04T21:44:53.057Z,2.13
2022-09-04T21:48:17.972Z,2.43
2022-09-04T21:51:34.889Z,2.43
2022-09-04T21:56:44.827Z,2.10
2022-09-04T22:02:36.669Z,2.40
2022-09-04T22:02:40.142Z,2.50
2022-09-04T22:04:57.804Z,2.60
2022-09-04T22:11:44.611Z,2.50
2022-09-04T22:13:41.031Z,2.80
2022-09-04T22:14:26.366Z,2.33
2022-09-04T22:17:38.294Z,3.17
2022-09-04T22:20:44.453Z,2.50
2022-09-04T22:24:01.274Z,2.70
2022-09-04T22:27:16.063Z,2.33
2022-09-04T22:30:09.008Z,2.43
2022-09-04T22:33:32.506Z,2.53
2022-09-04T22:37:10.052Z,2.63
2022-09-04T22:40:39.896Z,2.60
2022-09-04T22:43:48.172Z,2.47
2022-09-04T22:47:22.286Z,2.80
2022-09-04T22:50:50.158Z,2.57
2022-09-04T22:54:05.722Z,2.40
2022-09-04T22:56:56.396Z,2.97
2022-09-04T23:00:07.690Z,2.97
2022-09-04T23:03:25.291Z,2.50
2022-09-04T23:11:28.693Z,2.00
2022-09-04T23:13:42.883Z,2.40
2022-09-04T23:14:06.500Z,2.70
2022-09-04T23:17:27.118Z,2.97
2022-09-04T23:26:37.225Z,2.70
2022-09-04T23:26:49.213Z,2.70
2022-09-04T23:27:34.126Z,2.70
2022-09-04T23:30:26.611Z,2.73
2022-09-04T23:33:39.986Z,2.40
2022-09-04T23:36:57.436Z,2.50
2022-09-04T23:40:38.156Z,2.60
2022-09-04T23:44:03.128Z,2.60
2022-09-04T23:47:04.062Z,2.20
2022-09-04T23:50:00.851Z,2.43
2022-09-04T23:53:01.072Z,2.43
2022-09-04T23:56:02.526Z,2.40
2022-09-04T23:59:30.204Z,2.70
